sensor_id;sensor_type;location;lat;lon;timestamp;pressure;altitude;pressure_sealevel;temperature;humidity
53715;BME280;39608;55.630;37.864;2023-03-30T00:01:41;98683.66;;;8.26;71.55
53715;BME280;39608;55.630;37.864;2023-03-30T00:06:44;98688.16;;;8.31;71.30
53715;BME280;39608;55.630;37.864;2023-03-30T00:11:48;98693.38;;;8.27;71.50
53715;BME280;39608;55.630;37.864;2023-03-30T00:16:49;98686.88;;;8.28;71.16
53715;BME280;39608;55.630;37.864;2023-03-30T00:21:54;98692.06;;;8.25;71.49
53715;BME280;39608;55.630;37.864;2023-03-30T00:26:56;98676.25;;;8.18;70.96
53715;BME280;39608;55.630;37.864;2023-03-30T00:31:58;98688.25;;;8.12;71.56
53715;BME280;39608;55.630;37.864;2023-03-30T00:37:01;98684.16;;;8.14;71.29
53715;BME280;39608;55.630;37.864;2023-03-30T00:42:03;98668.34;;;8.08;71.58
53715;BME280;39608;55.630;37.864;2023-03-30T00:47:05;98676.34;;;8.13;71.62
53715;BME280;39608;55.630;37.864;2023-03-30T00:52:10;98683.16;;;8.24;71.84
53715;BME280;39608;55.630;37.864;2023-03-30T00:57:12;98662.34;;;8.25;71.97
53715;BME280;39608;55.630;37.864;2023-03-30T01:02:15;98672.25;;;8.29;71.79
53715;BME280;39608;55.630;37.864;2023-03-30T01:07:19;98683.75;;;8.35;71.61
53715;BME280;39608;55.630;37.864;2023-03-30T01:12:24;98673.75;;;8.35;71.34
53715;BME280;39608;55.630;37.864;2023-03-30T01:17:30;98676.66;;;8.39;71.64
53715;BME280;39608;55.630;37.864;2023-03-30T01:23:00;98679.69;;;8.51;71.68
53715;BME280;39608;55.630;37.864;2023-03-30T01:28:24;98687.28;;;8.49;71.65
53715;BME280;39608;55.630;37.864;2023-03-30T01:33:45;98689.78;;;8.46;71.80
53715;BME280;39608;55.630;37.864;2023-03-30T01:39:13;98692.97;;;8.48;71.66
53715;BME280;39608;55.630;37.864;2023-03-30T01:44:25;98698.47;;;8.43;71.59
53715;BME280;39608;55.630;37.864;2023-03-30T01:49:36;98706.56;;;8.43;71.56
53715;BME280;39608;55.630;37.864;2023-03-30T01:54:45;98697.78;;;8.37;71.23
53715;BME280;39608;55.630;37.864;2023-03-30T01:59:53;98714.97;;;8.27;71.43
53715;BME280;39608;55.630;37.864;2023-03-30T02:04:57;98712.75;;;8.15;71.28
53715;BME280;39608;55.630;37.864;2023-03-30T02:10:05;98714.84;;;8.04;71.52
53715;BME280;39608;55.630;37.864;2023-03-30T02:15:10;98726.81;;;7.98;71.01
53715;BME280;39608;55.630;37.864;2023-03-30T02:20:13;98734.88;;;7.84;70.57
53715;BME280;39608;55.630;37.864;2023-03-30T02:25:18;98735.00;;;7.79;70.77
53715;BME280;39608;55.630;37.864;2023-03-30T02:30:20;98737.06;;;7.68;70.53
53715;BME280;39608;55.630;37.864;2023-03-30T02:35:44;98743.59;;;7.81;70.11
53715;BME280;39608;55.630;37.864;2023-03-30T02:40:59;98741.78;;;7.77;69.86
53715;BME280;39608;55.630;37.864;2023-03-30T02:46:16;98748.28;;;7.76;69.54
53715;BME280;39608;55.630;37.864;2023-03-30T02:51:33;98748.28;;;7.76;69.38
53715;BME280;39608;55.630;37.864;2023-03-30T02:56:45;98731.94;;;7.67;69.10
53715;BME280;39608;55.630;37.864;2023-03-30T03:01:52;98743.25;;;7.69;69.32
53715;BME280;39608;55.630;37.864;2023-03-30T03:06:57;98743.59;;;7.62;69.37
53715;BME280;39608;55.630;37.864;2023-03-30T03:12:04;98741.63;;;7.68;69.18
53715;BME280;39608;55.630;37.864;2023-03-30T03:17:06;98748.00;;;7.58;69.05
53715;BME280;39608;55.630;37.864;2023-03-30T03:22:08;98760.47;;;7.54;69.19
53715;BME280;39608;55.630;37.864;2023-03-30T03:27:12;98763.16;;;7.54;69.01
53715;BME280;39608;55.630;37.864;2023-03-30T03:32:14;98768.06;;;7.52;69.07
53715;BME280;39608;55.630;37.864;2023-03-30T03:37:18;98765.38;;;7.52;69.05
53715;BME280;39608;55.630;37.864;2023-03-30T03:42:21;98771.25;;;7.54;69.27
53715;BME280;39608;55.630;37.864;2023-03-30T03:47:23;98775.84;;;7.53;68.90
53715;BME280;39608;55.630;37.864;2023-03-30T03:52:25;98784.69;;;7.59;68.90
53715;BME280;39608;55.630;37.864;2023-03-30T03:57:29;98787.31;;;7.64;68.43
53715;BME280;39608;55.630;37.864;2023-03-30T04:02:31;98791.38;;;7.62;68.29
53715;BME280;39608;55.630;37.864;2023-03-30T04:07:32;98797.03;;;7.65;68.43
53715;BME280;39608;55.630;37.864;2023-03-30T04:12:36;98807.00;;;7.65;68.43
53715;BME280;39608;55.630;37.864;2023-03-30T04:17:39;98804.75;;;7.53;68.36
53715;BME280;39608;55.630;37.864;2023-03-30T04:22:41;98799.13;;;7.49;68.46
53715;BME280;39608;55.630;37.864;2023-03-30T04:27:47;98792.28;;;7.57;67.77
53715;BME280;39608;55.630;37.864;2023-03-30T04:32:50;98792.13;;;7.48;67.86
53715;BME280;39608;55.630;37.864;2023-03-30T04:38:02;98796.94;;;7.51;67.75
53715;BME280;39608;55.630;37.864;2023-03-30T04:43:05;98796.78;;;7.43;67.56
53715;BME280;39608;55.630;37.864;2023-03-30T04:48:07;98800.06;;;7.40;67.56
53715;BME280;39608;55.630;37.864;2023-03-30T04:53:10;98786.66;;;7.34;67.63
53715;BME280;39608;55.630;37.864;2023-03-30T04:58:13;98790.59;;;7.42;67.58
53715;BME280;39608;55.630;37.864;2023-03-30T05:03:15;98793.88;;;7.39;67.53
53715;BME280;39608;55.630;37.864;2023-03-30T05:08:17;98785.44;;;7.46;67.18
53715;BME280;39608;55.630;37.864;2023-03-30T05:13:21;98797.44;;;7.53;67.09
53715;BME280;39608;55.630;37.864;2023-03-30T05:18:23;98797.44;;;7.53;66.28
53715;BME280;39608;55.630;37.864;2023-03-30T05:23:25;98799.00;;;7.60;66.03
53715;BME280;39608;55.630;37.864;2023-03-30T05:28:45;98808.88;;;7.83;65.38
53715;BME280;39608;55.630;37.864;2023-03-30T05:33:47;98814.66;;;7.77;65.30
53715;BME280;39608;55.630;37.864;2023-03-30T05:38:49;98822.94;;;7.80;65.01
53715;BME280;39608;55.630;37.864;2023-03-30T05:43:52;98822.94;;;7.80;65.03
53715;BME280;39608;55.630;37.864;2023-03-30T05:48:54;98823.25;;;7.79;64.78
53715;BME280;39608;55.630;37.864;2023-03-30T05:53:56;98820.47;;;7.84;64.84
53715;BME280;39608;55.630;37.864;2023-03-30T05:58:59;98823.09;;;7.89;64.45
53715;BME280;39608;55.630;37.864;2023-03-30T06:04:04;98830.91;;;7.91;63.48
53715;BME280;39608;55.630;37.864;2023-03-30T06:09:07;98834.09;;;7.93;63.12
53715;BME280;39608;55.630;37.864;2023-03-30T06:14:11;98840.22;;;7.98;62.69
53715;BME280;39608;55.630;37.864;2023-03-30T06:19:13;98849.41;;;7.97;62.41
53715;BME280;39608;55.630;37.864;2023-03-30T06:24:15;98841.41;;;7.92;62.35
53715;BME280;39608;55.630;37.864;2023-03-30T06:29:19;98844.97;;;8.07;61.69
53715;BME280;39608;55.630;37.864;2023-03-30T06:34:21;98843.88;;;8.08;61.71
53715;BME280;39608;55.630;37.864;2023-03-30T06:39:24;98844.53;;;8.18;61.06
53715;BME280;39608;55.630;37.864;2023-03-30T06:44:27;98846.16;;;8.33;60.42
53715;BME280;39608;55.630;37.864;2023-03-30T06:49:30;98842.66;;;8.33;60.38
53715;BME280;39608;55.630;37.864;2023-03-30T06:54:32;98839.94;;;8.33;59.92
53715;BME280;39608;55.630;37.864;2023-03-30T06:59:36;98841.25;;;8.35;60.04
53715;BME280;39608;55.630;37.864;2023-03-30T07:04:38;98833.22;;;8.30;59.53
53715;BME280;39608;55.630;37.864;2023-03-30T07:09:39;98838.44;;;8.40;59.39
53715;BME280;39608;55.630;37.864;2023-03-30T07:14:43;98838.88;;;8.48;59.73
53715;BME280;39608;55.630;37.864;2023-03-30T07:19:45;98840.31;;;8.45;59.58
53715;BME280;39608;55.630;37.864;2023-03-30T07:24:47;98845.91;;;8.49;59.43
53715;BME280;39608;55.630;37.864;2023-03-30T07:29:51;98846.31;;;8.56;59.18
53715;BME280;39608;55.630;37.864;2023-03-30T07:34:53;98833.09;;;8.54;58.48
53715;BME280;39608;55.630;37.864;2023-03-30T07:39:55;98837.75;;;8.82;57.73
53715;BME280;39608;55.630;37.864;2023-03-30T07:44:59;98849.38;;;8.96;57.57
53715;BME280;39608;55.630;37.864;2023-03-30T07:50:01;98849.38;;;8.96;57.54
53715;BME280;39608;55.630;37.864;2023-03-30T07:55:03;98843.56;;;9.03;56.80
53715;BME280;39608;55.630;37.864;2023-03-30T08:00:11;98849.56;;;9.14;55.87
53715;BME280;39608;55.630;37.864;2023-03-30T08:05:14;98848.66;;;9.18;56.01
53715;BME280;39608;55.630;37.864;2023-03-30T08:10:17;98852.16;;;9.19;55.33
53715;BME280;39608;55.630;37.864;2023-03-30T08:15:20;98857.00;;;8.94;55.27
53715;BME280;39608;55.630;37.864;2023-03-30T08:20:22;98863.88;;;8.72;55.87
53715;BME280;39608;55.630;37.864;2023-03-30T08:25:25;98853.41;;;8.52;56.13
53715;BME280;39608;55.630;37.864;2023-03-30T08:30:29;98868.38;;;8.63;56.02
53715;BME280;39608;55.630;37.864;2023-03-30T08:35:31;98859.75;;;8.61;56.00
53715;BME280;39608;55.630;37.864;2023-03-30T08:40:33;98863.06;;;8.72;56.46
53715;BME280;39608;55.630;37.864;2023-03-30T08:45:40;98859.19;;;8.92;55.90
53715;BME280;39608;55.630;37.864;2023-03-30T08:50:48;98861.97;;;9.15;55.25
53715;BME280;39608;55.630;37.864;2023-03-30T08:55:59;98862.81;;;9.15;54.59
53715;BME280;39608;55.630;37.864;2023-03-30T09:01:11;98850.59;;;9.04;54.99
53715;BME280;39608;55.630;37.864;2023-03-30T09:06:22;98849.97;;;8.93;54.74
53715;BME280;39608;55.630;37.864;2023-03-30T09:11:30;98846.19;;;9.08;54.94
53715;BME280;39608;55.630;37.864;2023-03-30T09:16:37;98857.00;;;9.22;54.60
53715;BME280;39608;55.630;37.864;2023-03-30T09:21:42;98851.59;;;9.08;54.85
53715;BME280;39608;55.630;37.864;2023-03-30T09:26:48;98858.19;;;8.88;55.20
53715;BME280;39608;55.630;37.864;2023-03-30T09:32:01;98869.69;;;8.80;55.40
53715;BME280;39608;55.630;37.864;2023-03-30T09:37:08;98868.78;;;8.70;54.95
53715;BME280;39608;55.630;37.864;2023-03-30T09:42:18;98880.72;;;8.83;54.71
53715;BME280;39608;55.630;37.864;2023-03-30T09:47:26;98857.84;;;8.62;54.87
53715;BME280;39608;55.630;37.864;2023-03-30T09:52:29;98898.19;;;8.58;54.84
53715;BME280;39608;55.630;37.864;2023-03-30T09:57:31;98895.38;;;8.49;54.56
53715;BME280;39608;55.630;37.864;2023-03-30T10:02:35;98896.47;;;8.48;54.89
53715;BME280;39608;55.630;37.864;2023-03-30T10:07:39;98892.50;;;8.40;54.97
53715;BME280;39608;55.630;37.864;2023-03-30T10:12:43;98889.22;;;8.44;55.85
53715;BME280;39608;55.630;37.864;2023-03-30T10:17:49;98894.69;;;8.38;56.60
53715;BME280;39608;55.630;37.864;2023-03-30T10:22:59;98886.34;;;8.02;57.12
53715;BME280;39608;55.630;37.864;2023-03-30T10:28:04;98911.44;;;7.83;57.67
53715;BME280;39608;55.630;37.864;2023-03-30T10:33:10;98902.41;;;7.74;58.39
53715;BME280;39608;55.630;37.864;2023-03-30T10:38:12;98917.56;;;7.70;58.29
53715;BME280;39608;55.630;37.864;2023-03-30T10:43:18;98920.91;;;7.62;58.62
53715;BME280;39608;55.630;37.864;2023-03-30T10:48:40;98920.84;;;7.67;58.25
53715;BME280;39608;55.630;37.864;2023-03-30T10:53:51;98913.06;;;7.41;59.35
53715;BME280;39608;55.630;37.864;2023-03-30T10:59:16;98921.06;;;7.27;59.51
53715;BME280;39608;55.630;37.864;2023-03-30T11:04:30;98929.38;;;7.07;60.33
53715;BME280;39608;55.630;37.864;2023-03-30T11:09:38;98917.66;;;6.92;60.90
53715;BME280;39608;55.630;37.864;2023-03-30T11:14:46;98922.75;;;6.94;61.10
53715;BME280;39608;55.630;37.864;2023-03-30T11:19:54;98925.09;;;7.06;61.54
53715;BME280;39608;55.630;37.864;2023-03-30T11:24:57;98933.00;;;7.21;59.63
53715;BME280;39608;55.630;37.864;2023-03-30T11:30:03;98915.88;;;6.82;61.08
53715;BME280;39608;55.630;37.864;2023-03-30T11:35:16;98921.22;;;6.58;61.97
53715;BME280;39608;55.630;37.864;2023-03-30T11:40:23;98918.69;;;6.38;62.16
53715;BME280;39608;55.630;37.864;2023-03-30T11:45:40;98916.25;;;6.41;62.27
53715;BME280;39608;55.630;37.864;2023-03-30T11:51:00;98915.41;;;6.41;63.00
53715;BME280;39608;55.630;37.864;2023-03-30T11:56:06;98925.13;;;6.42;61.98
53715;BME280;39608;55.630;37.864;2023-03-30T12:06:38;98922.84;;;6.59;61.36
53715;BME280;39608;55.630;37.864;2023-03-30T12:11:45;98926.63;;;6.53;61.15
53715;BME280;39608;55.630;37.864;2023-03-30T12:16:50;98921.22;;;6.58;61.37
53715;BME280;39608;55.630;37.864;2023-03-30T12:21:59;98928.78;;;6.56;61.32
53715;BME280;39608;55.630;37.864;2023-03-30T12:27:03;98928.34;;;6.44;60.98
53715;BME280;39608;55.630;37.864;2023-03-30T12:32:06;98925.78;;;6.28;61.03
53715;BME280;39608;55.630;37.864;2023-03-30T12:37:22;98896.78;;;6.15;60.65
53715;BME280;39608;55.630;37.864;2023-03-30T12:42:30;98916.06;;;6.27;60.66
53715;BME280;39608;55.630;37.864;2023-03-30T12:47:38;98923.44;;;6.51;60.47
53715;BME280;39608;55.630;37.864;2023-03-30T12:52:53;98908.00;;;6.27;60.22
53715;BME280;39608;55.630;37.864;2023-03-30T12:58:15;98916.16;;;6.17;60.17
53715;BME280;39608;55.630;37.864;2023-03-30T13:03:34;98919.09;;;6.15;60.06
53715;BME280;39608;55.630;37.864;2023-03-30T13:08:40;98926.22;;;6.01;60.63
53715;BME280;39608;55.630;37.864;2023-03-30T13:13:54;98932.41;;;6.02;60.73
53715;BME280;39608;55.630;37.864;2023-03-30T13:18:56;98931.66;;;5.86;60.83
53715;BME280;39608;55.630;37.864;2023-03-30T13:24:35;98930.88;;;5.80;60.56
53715;BME280;39608;55.630;37.864;2023-03-30T13:29:37;98922.88;;;5.70;60.46
53715;BME280;39608;55.630;37.864;2023-03-30T13:34:59;98888.78;;;5.55;61.02
53715;BME280;39608;55.630;37.864;2023-03-30T13:40:10;98914.31;;;5.57;60.67
53715;BME280;39608;55.630;37.864;2023-03-30T13:45:29;98900.66;;;5.48;60.71
53715;BME280;39608;55.630;37.864;2023-03-30T13:50:34;98899.66;;;5.29;60.55
53715;BME280;39608;55.630;37.864;2023-03-30T13:55:39;98912.28;;;5.28;61.31
53715;BME280;39608;55.630;37.864;2023-03-30T14:00:44;98884.38;;;5.14;61.24
53715;BME280;39608;55.630;37.864;2023-03-30T14:05:49;98918.75;;;5.27;60.99
53715;BME280;39608;55.630;37.864;2023-03-30T14:10:53;98921.72;;;5.21;61.12
53715;BME280;39608;55.630;37.864;2023-03-30T14:15:55;98919.56;;;5.28;60.88
53715;BME280;39608;55.630;37.864;2023-03-30T14:20:59;98932.72;;;5.29;60.98
53715;BME280;39608;55.630;37.864;2023-03-30T14:26:12;98929.53;;;5.22;61.14
53715;BME280;39608;55.630;37.864;2023-03-30T14:31:15;98939.25;;;5.08;61.07
53715;BME280;39608;55.630;37.864;2023-03-30T14:36:19;98937.91;;;5.00;61.33
53715;BME280;39608;55.630;37.864;2023-03-30T14:41:26;98948.13;;;4.98;61.33
53715;BME280;39608;55.630;37.864;2023-03-30T14:46:36;98959.16;;;4.81;61.60
53715;BME280;39608;55.630;37.864;2023-03-30T14:51:41;98953.78;;;4.66;61.37
53715;BME280;39608;55.630;37.864;2023-03-30T14:56:49;98963.19;;;4.63;61.58
53715;BME280;39608;55.630;37.864;2023-03-30T15:01:52;98955.94;;;4.58;61.72
53715;BME280;39608;55.630;37.864;2023-03-30T15:06:55;98959.69;;;4.57;61.20
53715;BME280;39608;55.630;37.864;2023-03-30T15:12:01;98962.94;;;4.54;60.96
53715;BME280;39608;55.630;37.864;2023-03-30T15:17:08;98962.13;;;4.49;61.04
53715;BME280;39608;55.630;37.864;2023-03-30T15:22:16;98964.00;;;4.48;61.27
53715;BME280;39608;55.630;37.864;2023-03-30T15:27:24;98967.22;;;4.50;61.18
53715;BME280;39608;55.630;37.864;2023-03-30T15:32:31;98963.75;;;4.55;61.60
53715;BME280;39608;55.630;37.864;2023-03-30T15:37:35;98972.59;;;4.45;60.96
53715;BME280;39608;55.630;37.864;2023-03-30T15:42:39;98964.53;;;4.30;61.00
53715;BME280;39608;55.630;37.864;2023-03-30T15:47:41;98972.03;;;4.22;61.16
53715;BME280;39608;55.630;37.864;2023-03-30T15:52:44;98987.03;;;4.18;61.20
53715;BME280;39608;55.630;37.864;2023-03-30T15:57:48;98994.59;;;4.21;60.95
53715;BME280;39608;55.630;37.864;2023-03-30T16:02:53;98999.41;;;4.14;60.76
53715;BME280;39608;55.630;37.864;2023-03-30T16:07:59;98990.53;;;4.14;61.46
53715;BME280;39608;55.630;37.864;2023-03-30T16:13:02;98986.50;;;4.11;60.90
53715;BME280;39608;55.630;37.864;2023-03-30T16:18:06;98997.75;;;4.03;60.90
53715;BME280;39608;55.630;37.864;2023-03-30T16:23:12;98984.53;;;3.86;61.30
53715;BME280;39608;55.630;37.864;2023-03-30T16:28:16;98988.59;;;3.93;61.84
53715;BME280;39608;55.630;37.864;2023-03-30T16:33:18;98994.53;;;4.01;61.10
53715;BME280;39608;55.630;37.864;2023-03-30T16:38:20;98990.75;;;3.97;61.53
53715;BME280;39608;55.630;37.864;2023-03-30T16:43:24;98993.97;;;3.99;62.00
53715;BME280;39608;55.630;37.864;2023-03-30T16:48:28;98993.97;;;3.93;61.40
53715;BME280;39608;55.630;37.864;2023-03-30T16:53:32;98985.06;;;3.77;61.29
53715;BME280;39608;55.630;37.864;2023-03-30T16:58:36;98993.38;;;3.76;61.28
53715;BME280;39608;55.630;37.864;2023-03-30T17:03:42;98984.53;;;3.75;61.64
53715;BME280;39608;55.630;37.864;2023-03-30T17:08:46;99004.88;;;3.71;62.09
53715;BME280;39608;55.630;37.864;2023-03-30T17:13:51;98999.25;;;3.73;61.75
53715;BME280;39608;55.630;37.864;2023-03-30T17:18:53;98997.63;;;3.67;61.64
53715;BME280;39608;55.630;37.864;2023-03-30T17:23:57;98986.31;;;3.54;62.24
53715;BME280;39608;55.630;37.864;2023-03-30T17:29:00;98998.13;;;3.58;62.61
53715;BME280;39608;55.630;37.864;2023-03-30T17:34:03;99003.50;;;3.58;61.65
53715;BME280;39608;55.630;37.864;2023-03-30T17:39:13;98989.78;;;3.55;61.71
53715;BME280;39608;55.630;37.864;2023-03-30T17:44:17;98989.00;;;3.54;61.77
53715;BME280;39608;55.630;37.864;2023-03-30T17:49:20;98997.53;;;3.46;62.50
53715;BME280;39608;55.630;37.864;2023-03-30T17:54:25;98997.53;;;3.46;62.36
53715;BME280;39608;55.630;37.864;2023-03-30T17:59:37;98998.66;;;3.60;61.75
53715;BME280;39608;55.630;37.864;2023-03-30T18:04:40;98994.38;;;3.59;61.48
53715;BME280;39608;55.630;37.864;2023-03-30T18:09:43;98992.22;;;3.56;61.97
53715;BME280;39608;55.630;37.864;2023-03-30T18:14:48;99002.66;;;3.53;62.16
53715;BME280;39608;55.630;37.864;2023-03-30T18:19:50;98990.59;;;3.50;61.97
53715;BME280;39608;55.630;37.864;2023-03-30T18:24:52;98980.63;;;3.40;61.96
53715;BME280;39608;55.630;37.864;2023-03-30T18:29:55;98979.78;;;3.35;61.86
53715;BME280;39608;55.630;37.864;2023-03-30T18:34:58;98981.91;;;3.28;62.01
53715;BME280;39608;55.630;37.864;2023-03-30T18:40:01;98984.31;;;3.29;62.34
53715;BME280;39608;55.630;37.864;2023-03-30T18:45:08;98992.06;;;3.25;61.98
53715;BME280;39608;55.630;37.864;2023-03-30T18:50:15;98972.47;;;3.20;61.97
53715;BME280;39608;55.630;37.864;2023-03-30T18:55:17;98970.63;;;3.25;61.78
53715;BME280;39608;55.630;37.864;2023-03-30T19:00:22;98970.09;;;3.29;62.09
53715;BME280;39608;55.630;37.864;2023-03-30T19:05:27;98966.03;;;3.21;62.17
53715;BME280;39608;55.630;37.864;2023-03-30T19:10:31;98957.44;;;3.19;62.14
53715;BME280;39608;55.630;37.864;2023-03-30T19:15:35;98957.72;;;3.17;62.07
53715;BME280;39608;55.630;37.864;2023-03-30T19:20:38;98956.03;;;3.06;62.37
53715;BME280;39608;55.630;37.864;2023-03-30T19:25:41;98955.44;;;2.94;62.56
53715;BME280;39608;55.630;37.864;2023-03-30T19:30:45;98956.53;;;2.98;62.34
53715;BME280;39608;55.630;37.864;2023-03-30T19:35:47;98950.38;;;2.97;62.47
53715;BME280;39608;55.630;37.864;2023-03-30T19:40:50;98955.94;;;2.90;62.14
53715;BME280;39608;55.630;37.864;2023-03-30T19:45:53;98942.28;;;2.87;62.90
53715;BME280;39608;55.630;37.864;2023-03-30T19:50:55;98942.28;;;2.87;62.32
53715;BME280;39608;55.630;37.864;2023-03-30T19:55:57;98939.03;;;2.85;62.47
53715;BME280;39608;55.630;37.864;2023-03-30T20:01:03;98941.19;;;2.88;62.45
53715;BME280;39608;55.630;37.864;2023-03-30T20:06:07;98932.06;;;2.84;62.17
53715;BME280;39608;55.630;37.864;2023-03-30T20:11:10;98932.53;;;2.70;62.39
53715;BME280;39608;55.630;37.864;2023-03-30T20:16:15;98921.59;;;2.77;62.56
53715;BME280;39608;55.630;37.864;2023-03-30T20:21:20;98924.09;;;2.94;62.19
53715;BME280;39608;55.630;37.864;2023-03-30T20:26:23;98928.59;;;2.83;62.27
53715;BME280;39608;55.630;37.864;2023-03-30T20:31:27;98928.06;;;2.81;62.16
53715;BME280;39608;55.630;37.864;2023-03-30T20:36:29;98915.47;;;2.82;62.12
53715;BME280;39608;55.630;37.864;2023-03-30T20:41:31;98895.88;;;2.76;62.01
53715;BME280;39608;55.630;37.864;2023-03-30T20:46:39;98902.03;;;2.71;62.41
53715;BME280;39608;55.630;37.864;2023-03-30T20:51:42;98902.50;;;2.68;62.42
53715;BME280;39608;55.630;37.864;2023-03-30T20:56:45;98894.75;;;2.67;62.64
53715;BME280;39608;55.630;37.864;2023-03-30T21:01:49;98890.44;;;2.66;62.29
53715;BME280;39608;55.630;37.864;2023-03-30T21:06:52;98894.16;;;2.60;62.04
53715;BME280;39608;55.630;37.864;2023-03-30T21:11:54;98878.31;;;2.53;61.64
53715;BME280;39608;55.630;37.864;2023-03-30T21:16:57;98878.06;;;2.54;61.70
53715;BME280;39608;55.630;37.864;2023-03-30T21:21:59;98883.66;;;2.53;61.98
53715;BME280;39608;55.630;37.864;2023-03-30T21:27:01;98893.03;;;2.50;61.73
53715;BME280;39608;55.630;37.864;2023-03-30T21:32:05;98887.44;;;2.52;61.72
53715;BME280;39608;55.630;37.864;2023-03-30T21:37:07;98881.84;;;2.59;61.41
53715;BME280;39608;55.630;37.864;2023-03-30T21:42:09;98886.66;;;2.56;61.89
53715;BME280;39608;55.630;37.864;2023-03-30T21:47:12;98879.63;;;2.50;61.64
53715;BME280;39608;55.630;37.864;2023-03-30T21:52:16;98887.91;;;2.44;61.22
53715;BME280;39608;55.630;37.864;2023-03-30T21:57:18;98883.09;;;2.46;61.57
53715;BME280;39608;55.630;37.864;2023-03-30T22:02:27;98869.66;;;2.40;61.82
53715;BME280;39608;55.630;37.864;2023-03-30T22:07:29;98871.47;;;2.30;61.67
53715;BME280;39608;55.630;37.864;2023-03-30T22:12:31;98867.13;;;2.18;61.58
53715;BME280;39608;55.630;37.864;2023-03-30T22:17:34;98870.41;;;2.31;61.54
53715;BME280;39608;55.630;37.864;2023-03-30T22:22:40;98875.84;;;2.46;61.28
53715;BME280;39608;55.630;37.864;2023-03-30T22:27:43;98869.59;;;2.30;61.53
53715;BME280;39608;55.630;37.864;2023-03-30T22:32:48;98877.59;;;2.25;61.40
53715;BME280;39608;55.630;37.864;2023-03-30T22:37:51;98863.34;;;2.19;61.57
53715;BME280;39608;55.630;37.864;2023-03-30T22:42:53;98874.06;;;2.19;61.61
53715;BME280;39608;55.630;37.864;2023-03-30T22:47:56;98860.44;;;2.21;61.25
53715;BME280;39608;55.630;37.864;2023-03-30T22:52:59;98861.78;;;2.18;61.53
53715;BME280;39608;55.630;37.864;2023-03-30T22:58:01;98857.47;;;2.17;61.60
53715;BME280;39608;55.630;37.864;2023-03-30T23:03:04;98851.06;;;2.18;61.72
53715;BME280;39608;55.630;37.864;2023-03-30T23:08:08;98843.00;;;2.13;61.87
53715;BME280;39608;55.630;37.864;2023-03-30T23:13:10;98844.34;;;2.16;61.86
53715;BME280;39608;55.630;37.864;2023-03-30T23:18:14;98832.56;;;2.17;61.63
53715;BME280;39608;55.630;37.864;2023-03-30T23:23:16;98840.06;;;2.15;62.08
53715;BME280;39608;55.630;37.864;2023-03-30T23:28:18;98830.16;;;2.15;61.43
53715;BME280;39608;55.630;37.864;2023-03-30T23:33:22;98839.25;;;2.14;61.90
53715;BME280;39608;55.630;37.864;2023-03-30T23:38:24;98816.75;;;2.10;61.85
53715;BME280;39608;55.630;37.864;2023-03-30T23:43:26;98821.28;;;2.04;61.96
53715;BME280;39608;55.630;37.864;2023-03-30T23:48:29;98815.34;;;2.02;62.36
53715;BME280;39608;55.630;37.864;2023-03-30T23:53:31;98810.84;;;2.03;62.03
53715;BME280;39608;55.630;37.864;2023-03-30T23:58:33;98813.19;;;1.99;62.00
